Aeroporto :
LOGIN :

Iscrizione | Disclaimer

   EN    FR    IT 

 










Sommario :    VFR   VFR Marginale   IFR   IFR Intensivo   IFR Molto Intensivo
Visibilità : 
Base nubi : 
>= 8 km
>= 3000ft
5 / 8 km
1000 / 3000 ft
1500m / 5 km
500 / 1000 ft
800 / 1500m
200 / 500 ft
< 800m
< 200 ft
Simboli :   Temporali  Nebbia  Neve Forte  Precipitazioni Forti  Vento > 20 kt
SIGMETs :   Varie  Temporali  Ghiacco  Turbolenza  Onda orograficha  Ceneri Vulcaniche






- Altitudine del aeroporto : 28 ft
- Codice IATA : SOZ


LFKS - Solenzara

ULTIMO METAR :
  • 020730Z AUTO VRB02KT CAVOK 13/10 Q1009

METARs OBSOLETI :
  • 020700Z AUTO VRB03KT CAVOK 10/08 Q1009
  • 020630Z AUTO VRB03KT CAVOK 08/07 Q1009
  • 020600Z AUTO VRB03KT CAVOK 08/07 Q1008
  • 020530Z AUTO VRB02KT CAVOK 08/08 Q1008
  • 020500Z AUTO 33004KT 240V030 CAVOK 09/08 Q1008
  • 020430Z AUTO 35005KT 310V020 CAVOK 09/08 Q1008
  • 012100Z AUTO 27004KT 250V310 CAVOK 11/10 Q1006
  • 020400Z AUTO VRB02KT CAVOK 08/08 Q1007
  • 020330Z AUTO VRB03KT CAVOK 08/07 Q1007
  • 020300Z AUTO 32003KT 260V360 CAVOK 08/07 Q1007
  • 020230Z AUTO VRB02KT CAVOK 07/06 Q1007

TAF TAF LFKS
Valido dal 01 a 15 ore il 02 a 15 ore UTC


011400Z 0115/0215 16010KT 9999 OVC050
TEMPO 0115/0121 4000 SHRA SCT020 OVC020
BECMG 0115/0116 02010KT
BECMG 0119/0121 24010KT
BECMG 0121/0124 CAVOK
TEMPO 0200/0206 SCT010



MetMap, La meteo Aeronautica in un colpo d'occhio ! - Copyright ORBIFLY Dicembre 2007 - Disclaimer

ORBIFLY MET'MAP TEAM :

Programmazione e sviluppo : Alexandra Zaïnal
Concezione : Baudouin d'Aumeries
Supporto tecnico e logistico : Manuel Goepfert
Aiuto : Marc-Olivier Méhu
Aiuto per la traduzione : Arnaldo La Scala




FONTI E CREDITI :

   NOAA